createdAt,value
2023-04-10T00:02:11.594Z,18.47
2023-04-10T00:04:39.729Z,18.48
2023-04-10T00:07:07.902Z,18.48
2023-04-10T00:09:36.274Z,18.49
2023-04-10T00:12:04.414Z,18.49
2023-04-10T00:14:32.542Z,18.49
2023-04-10T00:17:00.828Z,18.49
2023-04-10T00:19:29.122Z,18.50
2023-04-10T00:21:57.160Z,18.51
2023-04-10T00:24:25.478Z,18.50
2023-04-10T00:26:53.606Z,18.51
2023-04-10T00:29:21.691Z,18.51
2023-04-10T00:31:50.236Z,18.51
2023-04-10T00:34:18.452Z,18.52
2023-04-10T00:36:47.543Z,18.52
2023-04-10T00:39:15.614Z,18.52
2023-04-10T00:41:44.388Z,18.52
2023-04-10T00:44:12.780Z,18.52
2023-04-10T00:46:40.793Z,18.52
2023-04-10T00:49:09.798Z,18.53
2023-04-10T00:51:37.823Z,18.53
2023-04-10T00:54:06.788Z,18.53
2023-04-10T00:56:34.885Z,18.53
2023-04-10T00:59:04.650Z,18.53
2023-04-10T01:01:34.059Z,18.53
2023-04-10T01:04:02.277Z,18.53
2023-04-10T01:06:37.405Z,18.54
2023-04-10T01:09:24.785Z,18.53
2023-04-10T01:12:00.570Z,18.54
2023-04-10T01:14:33.953Z,18.53
2023-04-10T01:17:13.784Z,18.53
2023-04-10T01:19:50.929Z,18.54
2023-04-10T01:22:18.958Z,18.54
2023-04-10T01:25:05.659Z,18.53
2023-04-10T01:27:41.236Z,18.54
2023-04-10T01:30:09.294Z,18.53
2023-04-10T01:32:37.419Z,18.53
2023-04-10T01:35:07.153Z,18.53
2023-04-10T01:42:53.197Z,18.54
2023-04-10T01:45:26.313Z,18.54
2023-04-10T01:47:55.550Z,18.54
2023-04-10T01:50:24.610Z,18.54
2023-04-10T01:52:53.029Z,18.54
2023-04-10T01:55:26.638Z,18.54
2023-04-10T01:58:03.222Z,18.54
2023-04-10T02:00:31.349Z,18.54
2023-04-10T02:02:59.717Z,18.55
2023-04-10T02:05:29.484Z,18.54
2023-04-10T02:08:05.343Z,18.54
2023-04-10T02:10:58.368Z,18.55
2023-04-10T02:13:26.827Z,18.54
2023-04-10T02:15:56.157Z,18.53
2023-04-10T02:18:24.188Z,18.54
2023-04-10T02:20:52.946Z,18.54
2023-04-10T02:23:21.313Z,18.54
2023-04-10T02:25:49.458Z,18.54
2023-04-10T02:28:17.600Z,18.54
2023-04-10T02:30:45.706Z,18.54
2023-04-10T02:33:14.132Z,18.54
2023-04-10T02:35:42.458Z,18.52
2023-04-10T02:38:10.509Z,18.54
2023-04-10T02:40:38.884Z,18.52
2023-04-10T02:43:13.307Z,18.53
2023-04-10T02:45:41.955Z,18.53
2023-04-10T02:48:11.292Z,18.53
2023-04-10T02:50:39.972Z,18.53
2023-04-10T02:53:08.167Z,18.53
2023-04-10T02:55:36.393Z,18.52
2023-04-10T02:58:04.395Z,18.52
2023-04-10T03:00:33.713Z,18.52
2023-04-10T03:03:13.110Z,18.52
2023-04-10T03:05:53.630Z,18.51
2023-04-10T03:08:26.743Z,18.50
2023-04-10T03:10:54.805Z,18.50
2023-04-10T03:13:23.688Z,18.51
2023-04-10T03:15:52.090Z,18.50
2023-04-10T03:18:20.589Z,18.50
2023-04-10T03:20:51.025Z,18.50
2023-04-10T03:23:20.702Z,18.50
2023-04-10T03:26:12.075Z,18.50
2023-04-10T03:28:41.542Z,18.50
2023-04-10T03:31:12.515Z,18.49
2023-04-10T03:33:41.521Z,18.49
2023-04-10T03:36:11.564Z,18.49
2023-04-10T03:38:39.715Z,18.50
2023-04-10T03:41:10.036Z,18.49
2023-04-10T03:43:39.345Z,18.49
2023-04-10T03:46:07.412Z,18.49
2023-04-10T03:48:40.897Z,18.49
2023-04-10T03:51:09.176Z,18.49
2023-04-10T03:53:37.624Z,18.48
2023-04-10T03:56:08.991Z,18.48
2023-04-10T03:58:37.470Z,18.48
2023-04-10T04:01:05.849Z,18.48
2023-04-10T04:03:38.252Z,18.48
2023-04-10T04:06:27.389Z,18.47
2023-04-10T04:09:33.983Z,18.46
2023-04-10T04:12:16.369Z,18.45
2023-04-10T04:14:47.444Z,18.46
2023-04-10T04:17:34.187Z,18.47
2023-04-10T04:20:06.553Z,18.47
2023-04-10T04:22:53.037Z,18.46
2023-04-10T04:25:54.509Z,18.46
2023-04-10T04:28:25.949Z,18.44
2023-04-10T04:31:13.020Z,18.50
2023-04-10T04:34:04.251Z,18.57
2023-04-10T04:37:03.097Z,18.69
2023-04-10T04:39:57.148Z,18.80
2023-04-10T04:42:25.303Z,18.90
2023-04-10T04:45:16.114Z,19.05
2023-04-10T04:47:58.364Z,19.18
2023-04-10T04:50:42.045Z,19.31
2023-04-10T04:53:28.849Z,19.43
2023-04-10T04:56:07.679Z,19.55
2023-04-10T04:58:48.453Z,19.67
2023-04-10T05:01:30.891Z,19.79
2023-04-10T05:04:21.952Z,19.92
2023-04-10T05:06:53.108Z,20.04
2023-04-10T05:15:46.275Z,20.42
2023-04-10T05:18:35.727Z,20.52
2023-04-10T05:21:22.285Z,20.61
2023-04-10T05:24:06.899Z,20.71
2023-04-10T05:26:38.097Z,20.80
2023-04-10T05:33:22.583Z,21.97
2023-04-10T05:36:11.010Z,21.96
2023-04-10T05:39:11.545Z,21.83
2023-04-10T05:42:13.686Z,21.74
2023-04-10T05:44:55.628Z,21.75
2023-04-10T05:47:56.071Z,21.72
2023-04-10T05:50:50.282Z,21.72
2023-04-10T05:53:32.791Z,21.75
2023-04-10T05:56:18.340Z,21.79
2023-04-10T05:59:09.282Z,21.81
2023-04-10T06:02:03.876Z,21.83
2023-04-10T06:04:32.137Z,21.88
2023-04-10T06:07:01.846Z,21.91
2023-04-10T06:09:29.969Z,21.93
2023-04-10T06:12:01.490Z,21.96
2023-04-10T06:14:29.609Z,22.00
2023-04-10T06:16:57.797Z,22.04
2023-04-10T06:19:26.894Z,22.07
2023-04-10T06:21:55.222Z,22.08
2023-04-10T06:24:24.082Z,22.10
2023-04-10T06:26:53.252Z,22.10
2023-04-10T06:29:21.420Z,22.13
2023-04-10T06:31:50.192Z,22.15
2023-04-10T06:34:18.384Z,22.16
2023-04-10T06:36:59.589Z,22.18
2023-04-10T06:39:28.084Z,22.20
2023-04-10T06:41:56.284Z,22.20
2023-04-10T06:44:40.761Z,22.20
2023-04-10T06:47:09.395Z,22.22
2023-04-10T06:49:37.444Z,22.24
2023-04-10T06:52:05.628Z,22.27
2023-04-10T06:54:33.577Z,22.28
2023-04-10T06:57:01.874Z,22.30
2023-04-10T06:59:29.964Z,22.33
2023-04-10T07:01:58.136Z,22.36
2023-04-10T07:04:26.339Z,22.36
2023-04-10T07:06:54.377Z,22.39
2023-04-10T07:09:22.508Z,22.45
2023-04-10T07:11:50.425Z,22.47
2023-04-10T07:14:18.869Z,22.50
2023-04-10T07:16:46.965Z,22.44
2023-04-10T07:19:15.625Z,22.52
2023-04-10T07:21:43.758Z,22.66
2023-04-10T07:24:12.191Z,22.68
2023-04-10T07:26:40.675Z,22.72
2023-04-10T07:29:09.568Z,22.73
2023-04-10T07:31:37.783Z,22.76
2023-04-10T07:34:06.638Z,22.82
2023-04-10T07:36:34.803Z,22.84
2023-04-10T07:39:02.987Z,22.86
2023-04-10T07:41:31.253Z,22.88
2023-04-10T07:43:59.225Z,22.87
2023-04-10T07:46:27.916Z,22.76
2023-04-10T07:48:56.229Z,22.78
2023-04-10T07:51:24.575Z,22.87
2023-04-10T07:53:52.732Z,22.89
2023-04-10T07:56:21.343Z,22.95
2023-04-10T07:58:51.909Z,22.97
2023-04-10T08:01:20.628Z,23.02
2023-04-10T08:03:48.940Z,23.05
2023-04-10T08:06:17.220Z,23.04
2023-04-10T08:08:45.665Z,23.07
2023-04-10T08:11:29.921Z,23.12
2023-04-10T08:14:01.710Z,23.15
2023-04-10T08:16:31.535Z,23.19
2023-04-10T08:19:00.133Z,23.25
2023-04-10T08:21:29.406Z,23.25
2023-04-10T08:23:58.853Z,23.12
2023-04-10T08:26:27.752Z,23.04
2023-04-10T08:28:57.782Z,23.03
2023-04-10T08:31:26.964Z,22.99
2023-04-10T08:33:55.437Z,23.05
2023-04-10T08:36:23.962Z,23.07
2023-04-10T08:38:52.019Z,23.01
2023-04-10T08:41:20.145Z,22.94
2023-04-10T08:43:49.832Z,22.86
2023-04-10T08:46:18.028Z,22.85
2023-04-10T08:49:01.554Z,22.87
2023-04-10T08:51:47.988Z,22.85
2023-04-10T08:54:24.384Z,22.87
2023-04-10T08:56:53.403Z,22.90
2023-04-10T08:59:21.550Z,22.96
2023-04-10T09:01:49.972Z,23.02
2023-04-10T09:04:18.483Z,22.98
2023-04-10T09:06:47.289Z,23.01
2023-04-10T09:09:15.578Z,23.05
2023-04-10T09:11:56.167Z,22.96
2023-04-10T09:14:25.448Z,22.86
2023-04-10T09:16:54.031Z,22.83
2023-04-10T09:19:32.534Z,22.73
2023-04-10T09:22:00.615Z,22.65
2023-04-10T09:24:28.688Z,22.66
2023-04-10T09:26:56.760Z,22.69
2023-04-10T09:29:24.727Z,22.64
2023-04-10T09:31:52.692Z,22.61
2023-04-10T09:34:22.706Z,22.67
2023-04-10T09:36:58.378Z,22.71
2023-04-10T09:39:43.498Z,22.77
2023-04-10T09:42:12.541Z,23.00
2023-04-10T09:44:41.212Z,23.13
2023-04-10T09:47:16.286Z,23.22
2023-04-10T09:49:52.726Z,23.09
2023-04-10T09:52:34.100Z,23.01
2023-04-10T09:55:04.288Z,23.00
2023-04-10T09:57:33.468Z,22.95
2023-04-10T10:00:04.439Z,22.97
2023-04-10T10:02:37.201Z,23.01
2023-04-10T10:05:06.434Z,23.03
2023-04-10T10:07:34.514Z,23.07
2023-04-10T10:10:03.300Z,23.02
2023-04-10T10:12:37.310Z,22.93
2023-04-10T10:15:27.111Z,22.90
2023-04-10T10:18:24.361Z,22.87
2023-04-10T10:20:52.434Z,22.87
2023-04-10T10:23:20.475Z,22.92
2023-04-10T10:25:49.014Z,22.97
2023-04-10T10:28:17.153Z,23.13
2023-04-10T10:30:45.422Z,23.87
2023-04-10T10:33:13.754Z,24.17
2023-04-10T10:35:42.097Z,24.22
2023-04-10T10:38:10.169Z,24.23
2023-04-10T10:41:11.512Z,24.21
2023-04-10T10:43:50.950Z,24.23
2023-04-10T10:46:49.654Z,24.20
2023-04-10T10:49:17.616Z,24.14
2023-04-10T10:51:46.902Z,24.13
2023-04-10T10:54:30.006Z,24.13
2023-04-10T10:56:59.030Z,24.13
2023-04-10T10:59:49.129Z,24.13
2023-04-10T11:02:18.512Z,24.14
2023-04-10T11:04:49.709Z,24.15
2023-04-10T11:07:17.862Z,24.14
2023-04-10T11:09:47.864Z,24.12
2023-04-10T11:12:17.012Z,24.11
2023-04-10T11:14:45.605Z,24.10
2023-04-10T11:17:13.599Z,24.09
2023-04-10T11:19:58.471Z,24.11
2023-04-10T11:22:27.938Z,24.13
2023-04-10T11:24:58.029Z,24.13
2023-04-10T11:27:51.920Z,24.13
2023-04-10T11:30:33.147Z,24.13
2023-04-10T11:33:01.900Z,24.14
2023-04-10T11:35:31.773Z,24.12
2023-04-10T11:38:10.355Z,24.12
2023-04-10T11:40:56.974Z,24.13
2023-04-10T11:43:25.090Z,24.12
2023-04-10T11:46:07.609Z,24.13
2023-04-10T11:48:37.072Z,24.12
2023-04-10T11:51:12.166Z,24.11
2023-04-10T11:53:41.328Z,24.10
2023-04-10T11:56:20.306Z,24.13
2023-04-10T11:58:51.006Z,24.15
2023-04-10T12:01:21.213Z,24.16
2023-04-10T12:03:49.233Z,24.15
2023-04-10T12:06:19.694Z,24.13
2023-04-10T12:08:49.562Z,24.14
2023-04-10T12:11:18.876Z,24.12
2023-04-10T12:13:48.018Z,24.14
2023-04-10T12:16:16.268Z,24.13
2023-04-10T12:18:45.335Z,24.11
2023-04-10T12:21:13.325Z,24.09
2023-04-10T12:23:42.432Z,24.11
2023-04-10T12:26:12.166Z,24.13
2023-04-10T12:28:41.371Z,24.14
2023-04-10T12:31:09.514Z,24.14
2023-04-10T12:33:37.725Z,24.15
2023-04-10T12:36:06.268Z,24.14
2023-04-10T12:38:38.824Z,24.14
2023-04-10T12:41:07.229Z,24.15
2023-04-10T12:43:42.256Z,24.14
2023-04-10T12:46:11.248Z,24.12
2023-04-10T12:48:39.397Z,24.11
2023-04-10T12:51:07.570Z,24.13
2023-04-10T12:53:44.502Z,24.12
2023-04-10T12:56:13.580Z,24.09
2023-04-10T12:58:42.681Z,24.08
2023-04-10T13:01:10.875Z,24.08
2023-04-10T13:03:38.950Z,24.08
2023-04-10T13:11:13.683Z,24.13
2023-04-10T13:13:42.082Z,24.13
2023-04-10T13:16:13.577Z,24.18
2023-04-10T13:18:41.576Z,24.21
2023-04-10T13:21:10.636Z,24.23
2023-04-10T13:23:38.730Z,24.27
2023-04-10T13:26:06.964Z,24.27
2023-04-10T13:28:35.224Z,24.28
2023-04-10T13:31:03.332Z,24.29
2023-04-10T13:33:31.453Z,24.28
2023-04-10T13:36:02.206Z,24.25
2023-04-10T13:38:30.562Z,24.24
2023-04-10T13:40:58.567Z,24.21
2023-04-10T13:43:26.471Z,24.19
2023-04-10T13:45:54.574Z,24.16
2023-04-10T13:48:29.854Z,24.16
2023-04-10T13:51:01.706Z,24.13
2023-04-10T13:53:29.727Z,24.15
2023-04-10T13:55:57.835Z,24.13
2023-04-10T13:58:28.573Z,24.12
2023-04-10T14:00:56.707Z,24.11
2023-04-10T14:03:24.945Z,24.09
2023-04-10T14:05:53.595Z,24.01
2023-04-10T14:08:21.531Z,23.98
2023-04-10T14:10:52.034Z,23.97
2023-04-10T14:13:20.515Z,23.97
2023-04-10T14:15:48.617Z,23.94
2023-04-10T14:18:18.511Z,23.91
2023-04-10T14:20:46.678Z,23.89
2023-04-10T14:23:18.454Z,23.89
2023-04-10T14:25:47.245Z,23.85
2023-04-10T14:28:18.280Z,23.83
2023-04-10T14:30:48.804Z,23.74
2023-04-10T14:33:20.162Z,23.69
2023-04-10T14:35:48.532Z,23.62
2023-04-10T14:38:16.593Z,23.62
2023-04-10T14:40:48.631Z,23.63
2023-04-10T14:43:16.813Z,23.64
2023-04-10T14:45:44.919Z,23.60
2023-04-10T14:48:13.320Z,23.61
2023-04-10T14:50:41.588Z,23.63
2023-04-10T14:53:10.101Z,23.64
2023-04-10T14:55:38.281Z,23.56
2023-04-10T14:58:07.205Z,23.55
2023-04-10T15:00:35.558Z,23.51
2023-04-10T15:03:06.247Z,23.43
2023-04-10T15:05:35.059Z,23.32
2023-04-10T15:08:03.138Z,23.19
2023-04-10T15:10:31.190Z,23.02
2023-04-10T15:12:59.164Z,22.99
2023-04-10T15:15:27.243Z,22.92
2023-04-10T15:17:55.233Z,22.89
2023-04-10T15:20:23.255Z,22.89
2023-04-10T15:22:51.192Z,22.89
2023-04-10T15:25:19.530Z,22.87
2023-04-10T15:27:47.606Z,22.84
2023-04-10T15:30:17.406Z,22.72
2023-04-10T15:32:45.331Z,22.71
2023-04-10T15:35:13.762Z,22.72
2023-04-10T15:37:42.035Z,22.74
2023-04-10T15:40:10.830Z,22.69
2023-04-10T15:42:38.901Z,22.65
2023-04-10T15:45:07.393Z,22.61
2023-04-10T15:47:35.690Z,22.57
2023-04-10T15:50:04.815Z,22.54
2023-04-10T15:52:34.049Z,22.52
2023-04-10T15:55:02.096Z,22.50
2023-04-10T15:57:30.072Z,22.52
2023-04-10T16:00:00.659Z,22.58
2023-04-10T16:02:28.909Z,22.67
2023-04-10T16:04:57.348Z,22.74
2023-04-10T16:07:25.392Z,22.72
2023-04-10T16:09:55.261Z,22.67
2023-04-10T16:12:23.381Z,22.61
2023-04-10T16:16:25.782Z,21.57
2023-04-10T16:18:54.299Z,20.36
2023-04-10T16:21:23.131Z,19.56
2023-04-10T16:23:51.149Z,18.86
2023-04-10T16:26:19.587Z,18.54
2023-04-10T16:28:47.582Z,18.42
2023-04-10T16:31:16.068Z,18.16
2023-04-10T16:33:44.006Z,17.84
2023-04-10T16:36:11.994Z,17.97
2023-04-10T16:38:40.127Z,17.55
2023-04-10T16:41:10.109Z,17.48
2023-04-10T16:43:38.122Z,17.15
2023-04-10T16:46:06.202Z,17.27
2023-04-10T16:48:36.200Z,16.97
2023-04-10T16:51:06.413Z,16.55
2023-04-10T16:53:36.548Z,16.27
2023-04-10T16:56:05.309Z,16.05
2023-04-10T16:58:34.038Z,16.11
2023-04-10T17:01:16.094Z,15.49
2023-04-10T17:03:45.368Z,15.53
2023-04-10T17:06:14.503Z,15.49
2023-04-10T17:08:42.650Z,15.09
2023-04-10T17:11:12.762Z,14.78
2023-04-10T17:13:41.391Z,14.47
2023-04-10T17:16:09.645Z,14.16
2023-04-10T17:18:37.866Z,14.09
2023-04-10T17:21:06.101Z,14.25
2023-04-10T17:23:34.099Z,14.35
2023-04-10T17:26:05.764Z,14.62
2023-04-10T17:28:34.117Z,14.72
2023-04-10T17:31:02.484Z,14.41
2023-04-10T17:33:30.684Z,14.02
2023-04-10T17:35:58.913Z,13.78
2023-04-10T17:38:27.012Z,14.02
2023-04-10T17:40:55.013Z,14.18
2023-04-10T17:43:23.019Z,14.12
2023-04-10T17:45:51.043Z,14.06
2023-04-10T17:48:19.265Z,13.53
2023-04-10T17:50:49.303Z,13.14
2023-04-10T17:53:18.048Z,13.11
2023-04-10T17:55:46.182Z,13.01
2023-04-10T17:58:14.159Z,12.71
2023-04-10T18:00:43.057Z,12.41
2023-04-10T18:03:11.422Z,12.84
2023-04-10T18:05:39.876Z,13.08
2023-04-10T18:08:08.713Z,13.31
2023-04-10T18:10:36.816Z,13.46
2023-04-10T18:13:04.884Z,13.74
2023-04-10T18:15:32.867Z,13.56
2023-04-10T18:18:00.910Z,13.42
2023-04-10T18:20:28.942Z,13.56
2023-04-10T18:22:57.030Z,13.49
2023-04-10T18:25:25.025Z,13.55
2023-04-10T18:28:12.908Z,13.74
2023-04-10T18:30:41.472Z,13.46
2023-04-10T18:33:11.357Z,13.42
2023-04-10T18:35:39.882Z,13.60
2023-04-10T18:38:07.828Z,13.55
2023-04-10T18:40:36.992Z,13.63
2023-04-10T18:43:05.154Z,13.79
2023-04-10T18:45:34.460Z,13.79
2023-04-10T18:48:04.630Z,13.63
2023-04-10T18:50:38.641Z,13.76
2023-04-10T18:53:06.701Z,13.93
2023-04-10T18:55:34.685Z,13.88
2023-04-10T18:58:02.598Z,13.80
2023-04-10T19:00:32.164Z,13.71
2023-04-10T19:03:00.400Z,13.60
2023-04-10T19:05:32.662Z,13.10
2023-04-10T19:08:04.803Z,12.75
2023-04-10T19:10:33.381Z,12.78
2023-04-10T19:13:02.680Z,12.78
2023-04-10T19:15:30.673Z,12.72
2023-04-10T19:17:58.677Z,12.82
2023-04-10T19:20:50.610Z,12.62
2023-04-10T19:23:15.046Z,12.29
2023-04-10T19:25:43.879Z,12.41
2023-04-10T19:28:11.907Z,12.74
2023-04-10T19:30:39.849Z,12.73
2023-04-10T19:33:07.939Z,12.73
2023-04-10T19:35:36.029Z,12.78
2023-04-10T19:38:04.006Z,12.54
2023-04-10T19:40:32.228Z,12.66
2023-04-10T19:43:02.123Z,12.37
2023-04-10T19:45:32.475Z,12.20
2023-04-10T19:48:00.804Z,12.14
2023-04-10T19:50:33.099Z,11.79
2023-04-10T19:53:01.211Z,11.75
2023-04-10T19:55:29.452Z,11.73
2023-04-10T19:57:57.437Z,11.72
2023-04-10T20:00:25.642Z,11.76
2023-04-10T20:02:53.825Z,11.70
2023-04-10T20:05:22.013Z,11.68
2023-04-10T20:07:50.670Z,11.78
2023-04-10T20:10:19.409Z,11.87
2023-04-10T20:12:47.371Z,11.90
2023-04-10T20:15:15.585Z,11.92
2023-04-10T20:17:43.698Z,11.88
2023-04-10T20:20:13.458Z,11.79
2023-04-10T20:22:41.449Z,11.68
2023-04-10T20:25:09.981Z,11.84
2023-04-10T20:27:38.001Z,11.75
2023-04-10T20:30:07.187Z,11.67
2023-04-10T20:32:35.506Z,11.55
2023-04-10T20:35:03.694Z,11.38
2023-04-10T20:37:31.692Z,11.41
2023-04-10T20:39:59.587Z,11.59
2023-04-10T20:42:27.590Z,11.61
2023-04-10T20:44:55.841Z,11.79
2023-04-10T20:47:23.839Z,11.72
2023-04-10T20:49:51.826Z,11.69
2023-04-10T20:52:19.808Z,11.48
2023-04-10T20:54:47.789Z,11.57
2023-04-10T20:57:15.999Z,11.62
2023-04-10T20:59:43.962Z,11.48
2023-04-10T21:02:13.375Z,11.27
2023-04-10T21:04:41.435Z,11.24
2023-04-10T21:07:09.691Z,11.18
2023-04-10T21:09:37.680Z,11.18
2023-04-10T21:12:05.971Z,11.16
2023-04-10T21:14:35.887Z,11.24
2023-04-10T21:17:03.922Z,11.26
2023-04-10T21:19:31.925Z,11.37
2023-04-10T21:22:00.204Z,11.38
2023-04-10T21:24:28.771Z,11.26
2023-04-10T21:26:56.906Z,11.21
2023-04-10T21:29:24.962Z,11.22
2023-04-10T21:31:53.168Z,11.27
2023-04-10T21:34:21.269Z,11.34
2023-04-10T21:36:49.558Z,11.46
2023-04-10T21:39:17.501Z,11.36
2023-04-10T21:41:45.829Z,11.22
2023-04-10T21:44:13.807Z,11.15
2023-04-10T21:46:41.681Z,11.15
2023-04-10T21:49:10.536Z,11.32
2023-04-10T21:51:40.619Z,11.21
2023-04-10T21:54:08.593Z,11.16
2023-04-10T21:56:38.753Z,10.98
2023-04-10T21:59:06.932Z,10.99
2023-04-10T22:01:35.096Z,11.05
2023-04-10T22:04:03.486Z,10.83
2023-04-10T22:06:32.663Z,10.82
2023-04-10T22:09:00.751Z,10.43
2023-04-10T22:11:28.816Z,10.74
2023-04-10T22:14:00.170Z,10.75
2023-04-10T22:16:30.844Z,10.72
2023-04-10T22:18:58.851Z,10.70
2023-04-10T22:21:27.537Z,10.71
2023-04-10T22:23:55.888Z,10.84
2023-04-10T22:26:24.825Z,10.91
2023-04-10T22:28:54.076Z,10.79
2023-04-10T22:31:22.239Z,10.58
2023-04-10T22:33:50.457Z,10.69
2023-04-10T22:36:18.521Z,10.66
2023-04-10T22:38:46.608Z,10.62
2023-04-10T22:41:14.628Z,10.69
2023-04-10T22:43:42.864Z,10.70
2023-04-10T22:46:11.025Z,10.60
2023-04-10T22:48:39.431Z,10.51
2023-04-10T22:51:13.990Z,10.57
2023-04-10T22:53:42.100Z,10.27
2023-04-10T22:56:10.577Z,10.36
2023-04-10T22:58:41.991Z,10.49
2023-04-10T23:01:09.891Z,10.32
2023-04-10T23:03:38.290Z,10.36
2023-04-10T23:06:06.813Z,10.88
2023-04-10T23:08:35.040Z,11.29
2023-04-10T23:11:03.166Z,11.63
2023-04-10T23:13:31.294Z,11.92
2023-04-10T23:15:59.506Z,12.18
2023-04-10T23:18:27.627Z,12.44
2023-04-10T23:20:55.706Z,12.68
2023-04-10T23:23:23.570Z,12.92
2023-04-10T23:26:01.685Z,13.14
2023-04-10T23:28:29.746Z,13.36
2023-04-10T23:30:57.862Z,13.57
2023-04-10T23:33:26.097Z,13.77
2023-04-10T23:35:54.149Z,13.98
2023-04-10T23:38:22.635Z,14.18
2023-04-10T23:40:50.616Z,14.36
2023-04-10T23:43:18.591Z,14.54
2023-04-10T23:45:46.571Z,14.71
2023-04-10T23:48:14.736Z,14.88
2023-04-10T23:50:42.813Z,15.04
2023-04-10T23:53:11.838Z,15.21
2023-04-10T23:55:41.608Z,15.36
2023-04-10T23:58:10.190Z,15.51
